Time;durP1;ratioP1;P1;durP2;ratioP2;P2;SDS_P1;SDS_P2;PMS_P1;PMS_P2;Temp;Humidity;BMP_temperature;BMP_pressure;BME280_temperature;BME280_humidity;BME280_pressure;Samples;Min_cycle;Max_cycle;Signal;HPM_P1;HPM_P2
2021/10/31 00:00:36;;;;;;;;;;;;;;;7.37;100.00;95722.13;5082369;28;20019;-82
2021/10/31 00:03:01;;;;;;;;;;;;;;;7.27;100.00;95709.63;5080868;28;19942;-81
2021/10/31 00:05:26;;;;;;;;;;;;;;;7.22;100.00;95706.88;5081080;28;20031;-82
2021/10/31 00:07:52;;;;;;;;;;;;;;;7.23;100.00;95705.06;5079781;28;19990;-81
2021/10/31 00:10:20;;;;;;;;;;;;;;;7.36;100.00;95715.28;5080976;28;19924;-81
2021/10/31 00:12:45;;;;;;;;;;;;;;;7.38;100.00;95718.50;5091150;28;19935;-80
2021/10/31 00:15:11;;;;;;;;;;;;;;;7.34;100.00;95712.13;5080787;28;19924;-79
2021/10/31 00:17:38;;;;;;;;;;;;;;;7.33;100.00;95710.53;5079454;28;20396;-81
2021/10/31 00:20:04;;;;;;;;;;;;;;;7.36;100.00;95720.53;5062219;28;19924;-82
2021/10/31 00:22:32;;;;;;;;;;;;;;;7.40;100.00;95726.13;5079112;28;20009;-81
2021/10/31 00:25:00;;;;;;;;;;;;;;;7.41;100.00;95717.22;5079020;28;19924;-81
2021/10/31 00:27:28;;;;;;;;;;;;;;;7.45;100.00;95713.94;5079069;28;19924;-81
2021/10/31 00:29:53;;;;;;;;;;;;;;;7.48;100.00;95723.97;5079182;28;20365;-82
2021/10/31 00:32:19;;;;;;;;;;;;;;;7.49;100.00;95714.28;5079027;28;19977;-82
2021/10/31 00:34:45;;;;;;;;;;;;;;;7.46;100.00;95714.75;5062443;28;19935;-82
2021/10/31 00:37:11;;;;;;;;;;;;;;;7.52;100.00;95719.84;5079659;28;19925;-81
2021/10/31 00:39:36;;;;;;;;;;;;;;;7.57;100.00;95722.56;5079718;28;19985;-81
2021/10/31 00:42:02;;;;;;;;;;;;;;;7.74;100.00;95727.91;5067768;28;19912;-78
2021/10/31 00:44:30;;;;;;;;;;;;;;;7.72;100.00;95729.19;5083068;28;19924;-79
2021/10/31 00:46:58;;;;;;;;;;;;;;;7.80;100.00;95731.44;5061920;28;19924;-80
2021/10/31 00:49:23;;;;;;;;;;;;;;;7.72;100.00;95719.50;5088111;28;19924;-80
2021/10/31 00:51:51;;;;;;;;;;;;;;;7.66;100.00;95722.25;5085690;28;19996;-80
2021/10/31 00:54:18;;;;;;;;;;;;;;;7.73;100.00;95731.56;5084072;28;20023;-82
2021/10/31 00:56:46;;;;;;;;;;;;;;;7.70;100.00;95737.28;5093016;28;19968;-79
2021/10/31 00:59:12;;;;;;;;;;;;;;;7.63;100.00;95734.75;5093592;28;19925;-79
2021/10/31 01:01:38;;;;;;;;;;;;;;;7.60;100.00;95727.38;5081982;28;19932;-80
2021/10/31 01:04:04;;;;;;;;;;;;;;;7.79;100.00;95732.47;5081415;28;20388;-82
2021/10/31 01:06:51;;;;;;;;;;;;;;;7.81;100.00;95738.28;5023468;28;1821756;-81
2021/10/31 01:09:22;;;;;;;;;;;;;;;7.78;100.00;95729.06;5058633;28;19925;-81
2021/10/31 01:11:55;;;;;;;;;;;;;;;7.72;100.00;95734.41;5089611;28;19919;-79
2021/10/31 01:14:28;;;;;;;;;;;;;;;7.80;100.00;95732.25;5085104;28;19925;-80
2021/10/31 01:17:01;;;;;;;;;;;;;;;8.06;100.00;95736.19;5083869;28;19928;-80
2021/10/31 01:19:38;;;;;;;;;;;;;;;7.98;100.00;95733.94;5061990;28;19951;-81
2021/10/31 01:22:09;;;;;;;;;;;;;;;7.85;100.00;95737.56;5079172;28;19928;-82
2021/10/31 01:24:47;;;;;;;;;;;;;;;7.86;100.00;95727.94;5080035;28;20005;-81
2021/10/31 01:27:17;;;;;;;;;;;;;;;7.98;100.00;95733.94;5077720;28;19919;-79
2021/10/31 01:29:50;;;;;;;;;;;;;;;7.90;100.00;95721.19;5080039;28;19919;-80
2021/10/31 01:32:25;;;;;;;;;;;;;;;7.83;100.00;95720.53;5077992;28;19943;-81
2021/10/31 01:34:57;;;;;;;;;;;;;;;7.72;100.00;95716.88;5079399;28;20207;-82
2021/10/31 01:37:28;;;;;;;;;;;;;;;7.53;100.00;95710.16;5078448;28;20272;-81
2021/10/31 01:39:58;;;;;;;;;;;;;;;7.44;100.00;95712.34;5078585;28;19925;-82
2021/10/31 01:42:25;;;;;;;;;;;;;;;7.32;100.00;95708.94;5060482;28;19931;-82
2021/10/31 01:44:56;;;;;;;;;;;;;;;7.19;100.00;95719.63;5060425;28;19928;-82
2021/10/31 01:47:28;;;;;;;;;;;;;;;7.15;100.00;95716.66;5079288;28;19992;-81
2021/10/31 01:49:57;;;;;;;;;;;;;;;7.10;100.00;95717.34;5081216;28;20330;-82
2021/10/31 01:52:27;;;;;;;;;;;;;;;7.04;100.00;95715.59;5079577;28;20307;-81
2021/10/31 01:54:54;;;;;;;;;;;;;;;7.05;100.00;95717.22;5073396;28;20027;-81
2021/10/31 01:57:24;;;;;;;;;;;;;;;7.04;100.00;95707.75;5091727;28;19924;-82
2021/10/31 01:59:55;;;;;;;;;;;;;;;7.15;100.00;95721.06;5081465;28;20400;-80
2021/10/31 02:02:22;;;;;;;;;;;;;;;7.09;100.00;95707.09;5081617;28;19925;-81
2021/10/31 02:04:52;;;;;;;;;;;;;;;7.04;100.00;95713.00;5094123;28;19923;-80
2021/10/31 02:07:18;;;;;;;;;;;;;;;6.93;100.00;95711.16;5077964;28;19913;-80
2021/10/31 02:09:46;;;;;;;;;;;;;;;6.86;100.00;95702.63;5077475;28;20049;-80
2021/10/31 02:12:17;;;;;;;;;;;;;;;6.77;100.00;95703.97;5082244;28;20392;-81
2021/10/31 02:14:45;;;;;;;;;;;;;;;6.83;100.00;95711.72;5081013;28;19932;-82
2021/10/31 02:17:10;;;;;;;;;;;;;;;6.89;100.00;95714.44;5085687;28;19935;-79
2021/10/31 02:19:39;;;;;;;;;;;;;;;6.75;100.00;95708.63;5069692;28;19999;-81
2021/10/31 02:22:06;;;;;;;;;;;;;;;6.77;100.00;95696.91;5070135;28;19925;-82
2021/10/31 02:24:34;;;;;;;;;;;;;;;7.01;100.00;95708.22;5080442;28;19925;-82
2021/10/31 02:27:02;;;;;;;;;;;;;;;6.98;100.00;95707.88;5080955;28;20054;-80
2021/10/31 02:29:28;;;;;;;;;;;;;;;6.90;100.00;95702.97;5064992;28;20019;-82
2021/10/31 02:31:53;;;;;;;;;;;;;;;6.83;100.00;95690.81;5062789;28;19931;-81
2021/10/31 02:34:19;;;;;;;;;;;;;;;6.86;100.00;95691.38;5080545;28;20027;-82
2021/10/31 02:36:44;;;;;;;;;;;;;;;6.96;100.00;95684.56;5062263;28;19925;-82
2021/10/31 02:39:10;;;;;;;;;;;;;;;7.04;100.00;95686.84;5080735;28;19939;-79
2021/10/31 02:41:37;;;;;;;;;;;;;;;7.07;100.00;95670.72;5093158;28;19925;-82
2021/10/31 02:44:03;;;;;;;;;;;;;;;7.05;100.00;95674.59;5062358;28;19947;-82
2021/10/31 02:46:32;;;;;;;;;;;;;;;7.01;100.00;95674.22;5078946;28;19925;-82
2021/10/31 02:49:01;;;;;;;;;;;;;;;6.97;100.00;95673.09;5077323;28;19921;-82
2021/10/31 02:51:37;;;;;;;;;;;;;;;6.91;100.00;95665.34;5080748;28;19987;-82
2021/10/31 02:54:06;;;;;;;;;;;;;;;6.78;100.00;95667.16;5085455;28;19949;-79
2021/10/31 02:56:34;;;;;;;;;;;;;;;6.83;100.00;95679.53;5077214;28;19913;-79
2021/10/31 02:59:05;;;;;;;;;;;;;;;6.82;100.00;95676.13;5093323;28;19925;-81
2021/10/31 03:01:33;;;;;;;;;;;;;;;6.86;100.00;95683.53;5082312;28;20015;-82
2021/10/31 03:03:59;;;;;;;;;;;;;;;6.89;100.00;95698.75;5061793;28;19973;-82
2021/10/31 03:06:25;;;;;;;;;;;;;;;6.72;100.00;95696.00;5081036;28;19959;-82
2021/10/31 03:08:50;;;;;;;;;;;;;;;6.78;100.00;95692.47;5083220;28;19924;-82
2021/10/31 03:11:16;;;;;;;;;;;;;;;6.67;100.00;95690.63;5064344;28;19936;-82
2021/10/31 03:13:41;;;;;;;;;;;;;;;6.67;100.00;95686.19;5082669;28;19982;-80
2021/10/31 03:16:08;;;;;;;;;;;;;;;6.55;100.00;95682.75;5082802;28;19928;-81
2021/10/31 03:18:34;;;;;;;;;;;;;;;6.44;100.00;95675.69;5082329;28;20015;-81
2021/10/31 03:21:02;;;;;;;;;;;;;;;6.42;100.00;95675.91;5062962;28;19948;-81
2021/10/31 03:23:27;;;;;;;;;;;;;;;6.47;100.00;95683.09;5081168;28;20018;-82
2021/10/31 03:25:53;;;;;;;;;;;;;;;6.63;100.00;95679.84;5082269;28;19970;-79
2021/10/31 03:28:18;;;;;;;;;;;;;;;6.68;100.00;95690.44;5082696;28;19985;-80
2021/10/31 03:30:44;;;;;;;;;;;;;;;6.73;100.00;95689.75;5082301;28;19924;-81
2021/10/31 03:33:13;;;;;;;;;;;;;;;6.64;100.00;95689.28;5062882;28;20011;-81
2021/10/31 03:35:38;;;;;;;;;;;;;;;6.58;100.00;95682.34;5081190;28;19924;-80
2021/10/31 03:38:05;;;;;;;;;;;;;;;6.48;100.00;95685.47;5069504;28;19974;-81
2021/10/31 03:40:31;;;;;;;;;;;;;;;6.42;100.00;95681.16;5080482;28;19924;-81
2021/10/31 03:42:56;;;;;;;;;;;;;;;6.36;100.00;95678.63;5080127;28;20482;-82
2021/10/31 03:45:22;;;;;;;;;;;;;;;6.36;100.00;95676.81;5080408;28;19995;-82
2021/10/31 03:47:49;;;;;;;;;;;;;;;6.31;100.00;95676.69;5062547;28;20300;-82
2021/10/31 03:50:17;;;;;;;;;;;;;;;6.28;100.00;95677.09;5080683;28;19928;-82
2021/10/31 03:52:43;;;;;;;;;;;;;;;6.24;100.00;95681.16;5062939;28;19970;-82
2021/10/31 03:55:08;;;;;;;;;;;;;;;6.25;100.00;95680.19;5081992;28;19928;-82
2021/10/31 03:57:34;;;;;;;;;;;;;;;6.29;100.00;95678.69;5090168;28;19917;-78
2021/10/31 03:59:59;;;;;;;;;;;;;;;6.30;100.00;95686.34;5098902;28;20034;-79
2021/10/31 04:02:27;;;;;;;;;;;;;;;6.37;100.00;95681.00;5079129;28;19947;-80
2021/10/31 04:04:55;;;;;;;;;;;;;;;6.47;100.00;95680.47;5114547;22;19928;-76
2021/10/31 04:07:24;;;;;;;;;;;;;;;6.52;100.00;95681.41;5095515;28;19931;-78
2021/10/31 04:09:49;;;;;;;;;;;;;;;6.69;100.00;95675.53;5100253;28;19939;-77
2021/10/31 04:12:15;;;;;;;;;;;;;;;6.78;100.00;95680.22;5100994;28;19928;-77
2021/10/31 04:14:40;;;;;;;;;;;;;;;6.71;100.00;95671.66;5097472;28;20014;-78
2021/10/31 04:17:05;;;;;;;;;;;;;;;6.78;100.00;95676.78;5097776;28;19924;-77
2021/10/31 04:19:31;;;;;;;;;;;;;;;6.78;100.00;95671.56;5097486;28;19932;-78
2021/10/31 04:21:56;;;;;;;;;;;;;;;6.80;100.00;95667.72;5099246;28;20009;-80
2021/10/31 04:24:25;;;;;;;;;;;;;;;6.79;100.00;95670.56;5097073;28;19912;-78
2021/10/31 04:26:50;;;;;;;;;;;;;;;6.87;100.00;95665.00;5095584;28;20059;-78
2021/10/31 04:29:16;;;;;;;;;;;;;;;6.92;100.00;95664.31;5095840;28;19970;-77
2021/10/31 04:31:44;;;;;;;;;;;;;;;6.95;100.00;95667.28;5096330;28;20414;-77
2021/10/31 04:34:09;;;;;;;;;;;;;;;6.91;100.00;95658.31;5095317;28;19924;-78
2021/10/31 04:36:35;;;;;;;;;;;;;;;6.88;100.00;95660.56;5095167;28;19924;-78
2021/10/31 04:39:06;;;;;;;;;;;;;;;6.90;100.00;95659.31;5096084;28;20019;-77
2021/10/31 04:41:32;;;;;;;;;;;;;;;6.93;100.00;95656.25;5095828;28;19970;-78
2021/10/31 04:43:58;;;;;;;;;;;;;;;6.89;100.00;95647.28;5095665;28;19931;-77
2021/10/31 04:46:25;;;;;;;;;;;;;;;6.89;100.00;95638.63;5094587;28;19923;-79
2021/10/31 04:48:51;;;;;;;;;;;;;;;6.80;100.00;95631.13;5097284;28;19924;-78
2021/10/31 04:51:16;;;;;;;;;;;;;;;6.78;100.00;95645.41;5095259;28;20065;-78
2021/10/31 04:53:43;;;;;;;;;;;;;;;6.81;100.00;95647.59;5096464;28;19969;-78
2021/10/31 04:56:08;;;;;;;;;;;;;;;6.86;100.00;95646.94;5095437;28;20340;-77
2021/10/31 04:58:35;;;;;;;;;;;;;;;6.92;100.00;95644.19;5096126;28;19924;-78
2021/10/31 05:01:01;;;;;;;;;;;;;;;6.94;100.00;95650.03;5095026;28;20419;-77
2021/10/31 05:03:27;;;;;;;;;;;;;;;6.80;100.00;95651.25;5094960;28;19958;-78
2021/10/31 05:05:53;;;;;;;;;;;;;;;6.76;100.00;95650.09;5095257;28;19924;-76
2021/10/31 05:08:20;;;;;;;;;;;;;;;6.72;100.00;95646.31;5095298;28;19951;-79
2021/10/31 05:10:46;;;;;;;;;;;;;;;6.72;100.00;95644.50;5095269;28;20395;-79
2021/10/31 05:13:11;;;;;;;;;;;;;;;6.66;100.00;95639.38;5094350;28;19931;-78
2021/10/31 05:15:39;;;;;;;;;;;;;;;6.55;100.00;95633.91;5096679;28;19949;-79
2021/10/31 05:18:05;;;;;;;;;;;;;;;6.54;100.00;95629.72;5111189;28;19988;-76
2021/10/31 05:20:30;;;;;;;;;;;;;;;6.55;100.00;95636.53;5109116;28;20020;-77
2021/10/31 05:22:56;;;;;;;;;;;;;;;6.63;100.00;95632.81;5095327;28;19970;-78
2021/10/31 05:25:21;;;;;;;;;;;;;;;6.61;100.00;95637.44;5096821;28;20391;-78
2021/10/31 05:27:47;;;;;;;;;;;;;;;6.61;100.00;95632.22;5096131;28;20008;-78
2021/10/31 05:30:15;;;;;;;;;;;;;;;6.59;100.00;95631.66;5095298;28;19932;-77
2021/10/31 05:32:42;;;;;;;;;;;;;;;6.56;100.00;95617.25;5095180;28;19924;-78
2021/10/31 05:35:08;;;;;;;;;;;;;;;6.52;100.00;95620.53;5095536;28;19925;-78
2021/10/31 05:37:35;;;;;;;;;;;;;;;6.50;100.00;95628.56;5094695;28;20451;-78
2021/10/31 05:40:03;;;;;;;;;;;;;;;6.41;100.00;95629.91;5094267;28;20015;-78
2021/10/31 05:42:31;;;;;;;;;;;;;;;6.37;100.00;95634.00;5095187;28;20323;-78
2021/10/31 05:44:56;;;;;;;;;;;;;;;6.31;100.00;95630.47;5095791;28;19935;-78
2021/10/31 05:47:22;;;;;;;;;;;;;;;6.17;100.00;95633.47;5095083;28;19924;-78
2021/10/31 05:49:51;;;;;;;;;;;;;;;6.10;100.00;95638.78;5094297;28;20336;-78
2021/10/31 05:52:17;;;;;;;;;;;;;;;6.18;100.00;95635.84;5096740;28;19924;-77
2021/10/31 05:54:44;;;;;;;;;;;;;;;6.13;100.00;95638.31;5096464;28;19924;-78
2021/10/31 05:57:10;;;;;;;;;;;;;;;6.05;100.00;95641.25;5096196;28;19924;-78
2021/10/31 05:59:35;;;;;;;;;;;;;;;6.01;100.00;95635.66;5096341;28;19947;-78
2021/10/31 06:02:01;;;;;;;;;;;;;;;5.95;100.00;95640.97;5097228;28;20308;-77
2021/10/31 06:04:28;;;;;;;;;;;;;;;5.93;100.00;95633.38;5096871;28;19936;-77
2021/10/31 06:06:55;;;;;;;;;;;;;;;5.94;100.00;95634.97;5098034;28;19931;-79
2021/10/31 06:09:20;;;;;;;;;;;;;;;6.04;100.00;95634.44;5097792;28;19924;-78
2021/10/31 06:11:48;;;;;;;;;;;;;;;5.97;100.00;95644.97;5098224;28;19924;-77
2021/10/31 06:14:14;;;;;;;;;;;;;;;5.88;100.00;95648.88;5094995;28;19924;-78
2021/10/31 06:16:42;;;;;;;;;;;;;;;5.92;100.00;95644.84;5095006;28;19928;-78
2021/10/31 06:19:07;;;;;;;;;;;;;;;5.90;100.00;95639.00;5094339;28;19971;-78
2021/10/31 06:21:33;;;;;;;;;;;;;;;6.00;100.00;95641.91;5094784;28;20279;-78
2021/10/31 06:24:02;;;;;;;;;;;;;;;6.01;100.00;95638.28;5093543;28;20469;-78
2021/10/31 06:26:27;;;;;;;;;;;;;;;6.23;100.00;95632.56;5094584;28;20371;-78
2021/10/31 06:28:52;;;;;;;;;;;;;;;6.22;100.00;95634.41;5093876;28;20182;-78
2021/10/31 06:31:18;;;;;;;;;;;;;;;6.26;100.00;95634.75;5095497;28;19931;-77
2021/10/31 06:33:43;;;;;;;;;;;;;;;6.24;100.00;95634.97;5093990;28;20248;-78
2021/10/31 06:36:09;;;;;;;;;;;;;;;6.24;100.00;95632.38;5096246;28;19980;-80
2021/10/31 06:38:35;;;;;;;;;;;;;;;6.30;100.00;95641.13;5096424;28;19923;-79
2021/10/31 06:41:07;;;;;;;;;;;;;;;6.31;100.00;95635.69;5098353;28;19924;-77
2021/10/31 06:43:32;;;;;;;;;;;;;;;6.37;100.00;95634.00;5098024;28;19978;-76
2021/10/31 06:46:00;;;;;;;;;;;;;;;6.42;100.00;95631.50;5100460;28;19924;-78
2021/10/31 06:48:26;;;;;;;;;;;;;;;6.40;100.00;95627.50;5100198;28;20030;-78
2021/10/31 06:50:53;;;;;;;;;;;;;;;6.44;100.00;95624.22;5099936;28;20018;-78
2021/10/31 06:53:19;;;;;;;;;;;;;;;6.48;100.00;95630.63;5101288;28;19924;-77
2021/10/31 06:55:47;;;;;;;;;;;;;;;6.51;100.00;95624.94;5099012;28;20397;-78
2021/10/31 06:58:14;;;;;;;;;;;;;;;6.58;100.00;95628.25;5099230;28;19959;-76
2021/10/31 07:00:42;;;;;;;;;;;;;;;6.66;100.00;95621.09;5100206;28;19938;-78
2021/10/31 07:03:07;;;;;;;;;;;;;;;6.70;100.00;95615.19;5099503;28;19947;-78
2021/10/31 07:05:33;;;;;;;;;;;;;;;6.74;100.00;95624.19;5099341;28;19924;-78
2021/10/31 07:07:58;;;;;;;;;;;;;;;6.81;100.00;95630.09;5099145;28;19924;-78
2021/10/31 07:10:26;;;;;;;;;;;;;;;6.88;100.00;95629.97;5098305;28;19924;-78
2021/10/31 07:12:51;;;;;;;;;;;;;;;6.91;100.00;95624.31;5097318;28;19946;-77
2021/10/31 07:15:18;;;;;;;;;;;;;;;7.03;100.00;95625.09;5098009;28;19978;-78
2021/10/31 07:17:44;;;;;;;;;;;;;;;7.06;100.00;95629.91;5109836;28;19924;-77
2021/10/31 07:20:13;;;;;;;;;;;;;;;7.17;100.00;95624.91;5099282;28;19927;-78
2021/10/31 07:22:38;;;;;;;;;;;;;;;7.15;100.00;95629.53;5097171;28;20269;-78
2021/10/31 07:25:06;;;;;;;;;;;;;;;7.25;100.00;95635.00;5097210;28;20514;-77
2021/10/31 07:27:31;;;;;;;;;;;;;;;7.36;100.00;95631.56;5116099;28;19966;-76
2021/10/31 07:29:58;;;;;;;;;;;;;;;7.49;100.00;95633.97;5108891;28;19924;-78
2021/10/31 07:32:25;;;;;;;;;;;;;;;7.76;100.00;95621.16;5097439;28;20379;-78
2021/10/31 07:34:51;;;;;;;;;;;;;;;7.76;100.00;95615.13;5095779;28;19924;-77
2021/10/31 07:37:17;;;;;;;;;;;;;;;7.69;100.00;95622.28;5094937;28;20303;-78
2021/10/31 07:39:43;;;;;;;;;;;;;;;7.77;100.00;95617.50;5097487;28;20401;-77
2021/10/31 07:42:08;;;;;;;;;;;;;;;7.82;100.00;95614.19;5095936;28;19924;-77
2021/10/31 07:44:36;;;;;;;;;;;;;;;7.88;100.00;95613.25;5097428;28;19950;-75
2021/10/31 07:47:01;;;;;;;;;;;;;;;7.95;100.00;95607.88;5097793;28;19924;-78
2021/10/31 07:49:29;;;;;;;;;;;;;;;8.01;100.00;95612.19;5101191;28;19935;-77
2021/10/31 07:51:54;;;;;;;;;;;;;;;8.02;100.00;95608.56;5096078;28;19931;-77
2021/10/31 07:54:24;;;;;;;;;;;;;;;8.03;100.00;95600.47;5098101;28;19945;-78
2021/10/31 07:56:51;;;;;;;;;;;;;;;8.03;100.00;95610.13;5095875;28;19989;-78
2021/10/31 07:59:17;;;;;;;;;;;;;;;8.08;100.00;95608.41;5098185;28;20016;-77
2021/10/31 08:01:42;;;;;;;;;;;;;;;8.09;100.00;95609.19;5097983;28;19924;-77
2021/10/31 08:04:08;;;;;;;;;;;;;;;8.14;100.00;95607.47;5098288;28;20000;-78
2021/10/31 08:06:35;;;;;;;;;;;;;;;8.24;100.00;95612.09;5096195;28;20007;-78
2021/10/31 08:09:00;;;;;;;;;;;;;;;8.33;100.00;95604.63;5096414;28;19924;-78
2021/10/31 08:11:26;;;;;;;;;;;;;;;8.29;100.00;95603.53;5098009;28;19935;-78
2021/10/31 08:13:51;;;;;;;;;;;;;;;8.36;100.00;95599.75;5096778;28;20414;-77
2021/10/31 08:16:16;;;;;;;;;;;;;;;8.42;100.00;95598.03;5095570;28;19924;-76
2021/10/31 08:18:42;;;;;;;;;;;;;;;8.44;100.00;95598.56;5095894;28;19924;-77
2021/10/31 08:21:08;;;;;;;;;;;;;;;8.52;100.00;95597.41;5097688;28;19970;-78
2021/10/31 08:23:35;;;;;;;;;;;;;;;8.63;100.00;95589.47;5096008;28;19924;-78
2021/10/31 08:26:01;;;;;;;;;;;;;;;8.76;100.00;95590.16;5095140;28;19947;-78
2021/10/31 08:28:27;;;;;;;;;;;;;;;8.96;99.31;95592.31;5097212;28;19931;-77
2021/10/31 08:30:57;;;;;;;;;;;;;;;8.99;99.90;95587.38;5096971;28;19924;-78
2021/10/31 08:33:25;;;;;;;;;;;;;;;9.16;99.30;95582.91;5097823;28;19947;-78
2021/10/31 08:35:50;;;;;;;;;;;;;;;9.26;99.25;95576.22;5096747;28;19928;-77
2021/10/31 08:38:16;;;;;;;;;;;;;;;9.21;97.80;95569.06;5095307;28;19953;-79
2021/10/31 08:40:43;;;;;;;;;;;;;;;9.30;97.62;95553.66;5097575;28;19912;-78
2021/10/31 08:43:10;;;;;;;;;;;;;;;9.38;97.85;95548.00;5097314;28;19978;-78
2021/10/31 08:45:35;;;;;;;;;;;;;;;9.62;98.63;95543.28;5095469;28;19936;-77
2021/10/31 08:48:01;;;;;;;;;;;;;;;9.64;97.20;95551.72;5096484;28;19924;-78
2021/10/31 08:50:26;;;;;;;;;;;;;;;9.66;97.00;95555.69;5099048;28;20407;-78
2021/10/31 08:52:54;;;;;;;;;;;;;;;9.64;96.02;95549.09;5097715;28;19952;-78
2021/10/31 08:55:19;;;;;;;;;;;;;;;9.78;95.41;95546.88;5096557;28;19924;-77
2021/10/31 08:57:46;;;;;;;;;;;;;;;9.91;95.78;95543.88;5095762;28;20032;-78
2021/10/31 09:00:12;;;;;;;;;;;;;;;9.94;95.61;95544.16;5096482;28;19924;-77
2021/10/31 09:02:38;;;;;;;;;;;;;;;10.09;94.84;95538.28;5096270;28;20423;-77
2021/10/31 09:05:04;;;;;;;;;;;;;;;10.20;94.42;95539.16;5095298;28;20018;-78
2021/10/31 09:07:29;;;;;;;;;;;;;;;10.31;95.15;95537.44;5096377;28;19977;-76
2021/10/31 09:09:55;;;;;;;;;;;;;;;10.46;95.13;95537.56;5096597;28;19936;-78
2021/10/31 09:12:20;;;;;;;;;;;;;;;10.52;94.59;95539.19;5095761;28;19932;-78
2021/10/31 09:14:47;;;;;;;;;;;;;;;10.61;94.37;95539.53;5096468;28;19924;-77
2021/10/31 09:17:12;;;;;;;;;;;;;;;10.74;93.64;95534.63;5095967;28;19978;-78
2021/10/31 09:19:40;;;;;;;;;;;;;;;10.88;93.89;95534.19;5097307;28;19928;-78
2021/10/31 09:22:05;;;;;;;;;;;;;;;10.98;93.27;95524.53;5095208;28;19970;-78
2021/10/31 09:24:31;;;;;;;;;;;;;;;11.16;92.44;95520.66;5097826;28;19925;-78
2021/10/31 09:26:56;;;;;;;;;;;;;;;11.26;91.21;95523.34;5096753;28;20015;-79
2021/10/31 09:29:22;;;;;;;;;;;;;;;11.36;91.20;95516.56;5096686;28;19950;-78
2021/10/31 09:31:51;;;;;;;;;;;;;;;11.49;90.14;95511.59;5096424;28;19924;-78
2021/10/31 09:34:17;;;;;;;;;;;;;;;11.57;89.38;95510.31;5116573;28;19912;-75
2021/10/31 09:36:42;;;;;;;;;;;;;;;11.68;89.49;95505.88;5102858;28;19967;-78
2021/10/31 09:39:09;;;;;;;;;;;;;;;11.75;89.49;95491.38;5096402;28;19924;-78
2021/10/31 09:41:34;;;;;;;;;;;;;;;11.85;87.72;95489.88;5098543;28;20311;-78
2021/10/31 09:44:12;;;;;;;;;;;;;;;12.00;88.59;95488.03;5097871;28;19928;-78
2021/10/31 09:46:38;;;;;;;;;;;;;;;12.10;86.61;95487.25;5097396;28;20005;-78
2021/10/31 09:49:05;;;;;;;;;;;;;;;12.17;87.81;95485.16;5098557;28;19968;-78
2021/10/31 09:51:31;;;;;;;;;;;;;;;12.27;86.57;95477.25;5096940;28;19928;-78
2021/10/31 09:53:57;;;;;;;;;;;;;;;12.34;84.51;95472.50;5098668;28;19924;-77
2021/10/31 09:56:22;;;;;;;;;;;;;;;12.36;80.14;95469.59;5096391;28;19962;-78
2021/10/31 09:58:50;;;;;;;;;;;;;;;12.37;79.31;95463.25;5097090;28;19925;-77
2021/10/31 10:01:35;;;;;;;;;;;;;;;12.34;81.02;95461.94;5097578;28;19935;-77
2021/10/31 10:04:04;;;;;;;;;;;;;;;12.38;80.53;95456.13;5094361;28;19924;-78
2021/10/31 10:06:32;;;;;;;;;;;;;;;12.53;81.57;95453.47;5109059;22;20046;-82
2021/10/31 10:09:07;;;;;;;;;;;;;;;12.47;80.80;95450.06;5090381;28;19951;-83
2021/10/31 10:11:36;;;;;;;;;;;;;;;12.61;81.36;95450.31;5087876;28;19924;-83
2021/10/31 10:14:11;;;;;;;;;;;;;;;12.56;81.21;95448.47;5084292;28;20450;-82
2021/10/31 10:16:36;;;;;;;;;;;;;;;12.59;79.24;95433.94;5084337;28;20074;-83
2021/10/31 10:19:12;;;;;;;;;;;;;;;12.53;80.00;95432.38;5084945;28;19925;-83
2021/10/31 10:21:51;;;;;;;;;;;;;;;12.53;80.25;95435.00;5094948;28;19952;-83
2021/10/31 10:24:18;;;;;;;;;;;;;;;12.63;79.06;95436.84;5090740;28;19938;-83
2021/10/31 10:26:44;;;;;;;;;;;;;;;12.63;79.96;95442.91;5091512;28;19936;-82
2021/10/31 10:29:12;;;;;;;;;;;;;;;12.65;79.75;95435.53;5091463;28;19925;-83
2021/10/31 10:31:40;;;;;;;;;;;;;;;12.71;80.47;95423.91;5066819;28;19929;-83
2021/10/31 10:34:08;;;;;;;;;;;;;;;12.76;79.95;95426.53;5083934;28;20012;-83
2021/10/31 10:36:39;;;;;;;;;;;;;;;12.91;79.66;95423.03;5085115;28;19974;-83
2021/10/31 10:39:09;;;;;;;;;;;;;;;13.04;79.83;95417.22;5085458;28;20132;-83
2021/10/31 10:41:39;;;;;;;;;;;;;;;13.07;79.12;95408.72;5084700;28;19924;-82
2021/10/31 10:44:14;;;;;;;;;;;;;;;13.24;78.92;95397.88;5065909;28;20016;-83
2021/10/31 10:46:40;;;;;;;;;;;;;;;13.20;78.01;95394.16;5065554;28;19924;-84
2021/10/31 10:49:05;;;;;;;;;;;;;;;13.32;78.09;95394.66;5090484;28;19913;-83
2021/10/31 10:51:31;;;;;;;;;;;;;;;13.38;76.30;95385.63;5096850;28;19912;-84
2021/10/31 10:54:09;;;;;;;;;;;;;;;13.48;75.99;95389.28;5094141;28;19924;-84
2021/10/31 10:56:34;;;;;;;;;;;;;;;13.59;76.68;95385.50;5084192;28;19931;-83
2021/10/31 10:59:00;;;;;;;;;;;;;;;13.64;75.74;95377.56;5083422;28;19924;-83
2021/10/31 11:01:26;;;;;;;;;;;;;;;13.71;75.02;95378.03;5083343;28;19924;-83
2021/10/31 11:03:51;;;;;;;;;;;;;;;13.83;73.93;95370.56;5083115;28;19995;-83
2021/10/31 11:06:20;;;;;;;;;;;;;;;13.97;74.58;95367.25;5083573;28;19924;-83
2021/10/31 11:08:45;;;;;;;;;;;;;;;14.00;74.32;95361.44;5086947;28;19992;-84
2021/10/31 11:11:15;;;;;;;;;;;;;;;14.12;73.49;95357.34;5096455;28;19924;-83
2021/10/31 11:13:45;;;;;;;;;;;;;;;14.22;72.35;95353.81;5079422;28;19937;-82
2021/10/31 11:16:11;;;;;;;;;;;;;;;14.21;72.29;95343.53;5078069;28;19920;-83
2021/10/31 11:18:38;;;;;;;;;;;;;;;14.31;72.65;95328.31;5078287;28;19924;-83
2021/10/31 11:21:03;;;;;;;;;;;;;;;14.43;72.11;95323.44;5078176;28;19919;-83
2021/10/31 11:23:29;;;;;;;;;;;;;;;14.51;72.71;95322.06;5096224;28;19947;-83
2021/10/31 11:26:00;;;;;;;;;;;;;;;14.55;72.92;95307.19;5095675;28;19969;-83
2021/10/31 11:28:31;;;;;;;;;;;;;;;14.69;71.95;95302.03;5090740;28;19925;-83
2021/10/31 11:31:02;;;;;;;;;;;;;;;14.82;70.94;95296.03;5087032;28;19978;-83
2021/10/31 11:33:27;;;;;;;;;;;;;;;14.92;70.90;95295.91;5086701;28;19955;-82
2021/10/31 11:35:54;;;;;;;;;;;;;;;14.87;70.88;95282.72;5087554;28;19932;-82
2021/10/31 11:38:21;;;;;;;;;;;;;;;15.00;71.44;95275.13;5079021;28;20007;-82
2021/10/31 11:40:49;;;;;;;;;;;;;;;15.02;72.11;95273.78;5088228;28;19988;-84
2021/10/31 11:43:15;;;;;;;;;;;;;;;15.10;70.01;95267.06;5094268;28;20416;-83
2021/10/31 11:45:45;;;;;;;;;;;;;;;15.08;70.49;95264.69;5086178;28;19924;-83
2021/10/31 11:48:13;;;;;;;;;;;;;;;15.18;69.52;95256.59;5068379;28;19928;-83
2021/10/31 11:50:41;;;;;;;;;;;;;;;15.21;69.48;95248.06;5068219;28;19925;-84
2021/10/31 11:53:15;;;;;;;;;;;;;;;15.25;69.18;95250.94;5087706;28;19929;-83
2021/10/31 11:55:46;;;;;;;;;;;;;;;15.22;69.54;95240.91;5087347;28;19931;-85
2021/10/31 11:58:32;;;;;;;;;;;;;;;15.15;69.03;95240.50;5074758;28;20083;-82
2021/10/31 12:01:00;;;;;;;;;;;;;;;15.37;69.05;95232.72;5073429;28;19927;-84
2021/10/31 12:03:42;;;;;;;;;;;;;;;15.30;68.88;95227.00;5088425;28;20293;-84
2021/10/31 12:06:22;;;;;;;;;;;;;;;15.30;69.07;95221.72;5068111;28;19952;-82
2021/10/31 12:08:53;;;;;;;;;;;;;;;15.53;69.46;95212.06;5075381;28;19917;-83
2021/10/31 12:11:19;;;;;;;;;;;;;;;15.60;68.79;95209.81;5089541;28;19936;-84
2021/10/31 12:13:45;;;;;;;;;;;;;;;15.61;68.18;95210.63;5072341;28;19924;-84
2021/10/31 12:16:13;;;;;;;;;;;;;;;15.61;68.41;95208.75;5087667;28;19967;-83
2021/10/31 12:18:43;;;;;;;;;;;;;;;15.75;68.04;95200.84;5075455;28;19924;-83
2021/10/31 12:21:17;;;;;;;;;;;;;;;15.60;68.07;95209.03;5087899;28;19925;-83
2021/10/31 12:23:51;;;;;;;;;;;;;;;15.67;68.08;95204.19;5072071;28;19925;-83
2021/10/31 12:26:17;;;;;;;;;;;;;;;15.73;67.88;95200.34;5079093;28;19987;-83
2021/10/31 12:28:43;;;;;;;;;;;;;;;15.83;67.66;95191.44;5090052;28;19994;-83
2021/10/31 12:31:30;;;;;;;;;;;;;;;15.88;68.71;95194.78;5072672;28;20023;-84
2021/10/31 12:34:13;;;;;;;;;;;;;;;15.95;67.38;95195.16;5094172;28;19986;-83
2021/10/31 12:36:40;;;;;;;;;;;;;;;16.04;67.60;95186.53;5094235;28;19924;-85
2021/10/31 12:39:24;;;;;;;;;;;;;;;15.96;67.97;95185.34;5091888;28;20079;-83
2021/10/31 12:42:04;;;;;;;;;;;;;;;16.04;67.39;95184.66;5072326;28;19920;-85
2021/10/31 12:44:33;;;;;;;;;;;;;;;15.93;67.10;95184.09;5086593;28;19925;-83
2021/10/31 12:47:05;;;;;;;;;;;;;;;15.84;67.99;95180.53;5073960;28;20009;-83
2021/10/31 12:49:31;;;;;;;;;;;;;;;15.95;67.87;95178.47;5079857;28;19996;-83